createdAt,value
2023-04-26T00:02:07.509Z,8.38
2023-04-26T00:04:35.830Z,8.35
2023-04-26T00:07:03.931Z,8.31
2023-04-26T00:09:31.715Z,8.32
2023-04-26T00:11:59.594Z,8.32
2023-04-26T00:14:27.165Z,8.29
2023-04-26T00:16:55.048Z,8.31
2023-04-26T00:19:25.031Z,8.35
2023-04-26T00:21:52.388Z,8.38
2023-04-26T00:24:20.026Z,8.39
2023-04-26T00:26:47.460Z,8.41
2023-04-26T00:29:14.998Z,8.43
2023-04-26T00:31:42.926Z,8.43
2023-04-26T00:34:10.522Z,8.49
2023-04-26T00:36:38.186Z,8.49
2023-04-26T00:39:05.824Z,8.52
2023-04-26T00:41:33.308Z,8.55
2023-04-26T00:44:01.147Z,8.52
2023-04-26T00:46:29.471Z,8.52
2023-04-26T00:48:57.511Z,8.53
2023-04-26T00:51:25.063Z,8.53
2023-04-26T00:53:52.655Z,8.55
2023-04-26T00:56:22.403Z,8.64
2023-04-26T00:58:50.436Z,8.66
2023-04-26T01:01:18.236Z,8.72
2023-04-26T01:03:46.997Z,8.74
2023-04-26T01:06:14.744Z,8.83
2023-04-26T01:08:42.319Z,8.94
2023-04-26T01:11:10.867Z,8.99
2023-04-26T01:13:39.180Z,9.05
2023-04-26T01:16:08.227Z,9.11
2023-04-26T01:18:36.272Z,9.17
2023-04-26T01:21:05.058Z,9.14
2023-04-26T01:23:32.762Z,9.12
2023-04-26T01:26:00.251Z,9.08
2023-04-26T01:28:27.755Z,9.10
2023-04-26T01:30:55.378Z,9.10
2023-04-26T01:33:23.645Z,9.10
2023-04-26T01:35:52.674Z,9.17
2023-04-26T01:38:20.820Z,9.27
2023-04-26T01:40:48.444Z,9.35
2023-04-26T01:43:18.651Z,9.43
2023-04-26T01:45:50.069Z,9.49
2023-04-26T01:48:30.814Z,9.55
2023-04-26T01:51:01.393Z,9.58
2023-04-26T01:53:29.073Z,9.62
2023-04-26T01:55:56.716Z,9.66
2023-04-26T01:58:24.260Z,9.66
2023-04-26T02:00:51.786Z,9.63
2023-04-26T02:03:19.516Z,9.60
2023-04-26T02:05:47.349Z,9.53
2023-04-26T02:08:14.888Z,9.48
2023-04-26T02:10:42.529Z,9.35
2023-04-26T02:13:10.142Z,9.32
2023-04-26T02:15:37.654Z,9.28
2023-04-26T02:18:05.782Z,9.24
2023-04-26T02:20:33.748Z,9.18
2023-04-26T02:23:01.360Z,9.20
2023-04-26T02:25:28.941Z,9.17
2023-04-26T02:27:56.765Z,9.11
2023-04-26T02:30:24.248Z,9.12
2023-04-26T02:32:55.229Z,9.11
2023-04-26T02:35:24.096Z,9.10
2023-04-26T02:37:54.111Z,9.08
2023-04-26T02:40:22.254Z,8.96
2023-04-26T02:42:49.823Z,8.85
2023-04-26T02:45:18.210Z,8.79
2023-04-26T02:47:45.930Z,8.74
2023-04-26T02:50:13.642Z,8.69
2023-04-26T02:52:41.655Z,8.64
2023-04-26T02:55:09.663Z,8.59
2023-04-26T02:57:37.763Z,8.57
2023-04-26T03:00:08.956Z,8.52
2023-04-26T03:02:36.909Z,8.49
2023-04-26T03:05:05.173Z,8.53
2023-04-26T03:07:33.098Z,8.53
2023-04-26T03:10:00.677Z,8.52
2023-04-26T03:12:29.748Z,8.52
2023-04-26T03:14:57.483Z,8.49
2023-04-26T03:17:26.564Z,8.50
2023-04-26T03:19:54.625Z,8.49
2023-04-26T03:22:22.728Z,8.50
2023-04-26T03:24:50.408Z,8.49
2023-04-26T03:27:17.995Z,8.53
2023-04-26T03:29:45.970Z,8.55
2023-04-26T03:32:13.572Z,8.57
2023-04-26T03:34:41.319Z,8.60
2023-04-26T03:37:09.032Z,8.63
2023-04-26T03:39:38.589Z,8.66
2023-04-26T03:42:06.620Z,8.62
2023-04-26T03:44:35.563Z,8.62
2023-04-26T03:47:04.100Z,8.60
2023-04-26T03:49:32.938Z,8.62
2023-04-26T03:52:00.665Z,8.62
2023-04-26T03:54:28.190Z,8.59
2023-04-26T03:56:56.172Z,8.62
2023-04-26T03:59:23.744Z,8.63
2023-04-26T04:01:51.431Z,8.59
2023-04-26T04:04:19.162Z,8.56
2023-04-26T04:06:47.810Z,8.62
2023-04-26T04:09:15.473Z,8.64
2023-04-26T04:11:43.172Z,8.66
2023-04-26T04:14:10.860Z,8.67
2023-04-26T04:16:38.615Z,8.73
2023-04-26T04:19:06.328Z,8.70
2023-04-26T04:21:35.129Z,8.76
2023-04-26T04:24:04.872Z,8.79
2023-04-26T04:26:32.368Z,8.85
2023-04-26T04:29:08.700Z,8.85
2023-04-26T04:31:40.154Z,8.83
2023-04-26T04:34:10.171Z,8.83
2023-04-26T04:36:40.697Z,8.90
2023-04-26T04:39:13.527Z,8.88
2023-04-26T04:41:48.069Z,8.87
2023-04-26T04:44:18.364Z,8.91
2023-04-26T04:46:46.521Z,8.94
2023-04-26T04:49:15.055Z,8.97
2023-04-26T04:51:43.036Z,8.97
2023-04-26T04:54:15.511Z,8.91
2023-04-26T04:56:44.867Z,8.84
2023-04-26T04:59:14.513Z,8.81
2023-04-26T05:01:42.352Z,8.66
2023-04-26T05:04:14.097Z,8.53
2023-04-26T05:06:41.888Z,8.50
2023-04-26T05:09:11.509Z,8.49
2023-04-26T05:11:39.243Z,8.50
2023-04-26T05:14:08.446Z,8.53
2023-04-26T05:16:36.128Z,8.57
2023-04-26T05:19:04.759Z,8.56
2023-04-26T05:21:33.406Z,8.66
2023-04-26T05:24:01.032Z,8.73
2023-04-26T05:26:28.778Z,8.81
2023-04-26T05:29:17.501Z,8.88
2023-04-26T05:32:00.317Z,8.96
2023-04-26T05:34:54.135Z,9.03
2023-04-26T05:37:21.685Z,9.12
2023-04-26T05:39:49.477Z,9.15
2023-04-26T05:42:18.262Z,9.36
2023-04-26T05:44:46.419Z,9.41
2023-04-26T05:47:16.544Z,9.42
2023-04-26T05:49:44.214Z,9.51
2023-04-26T05:52:12.171Z,9.53
2023-04-26T05:54:41.153Z,9.63
2023-04-26T05:57:08.745Z,9.70
2023-04-26T05:59:38.574Z,9.82
2023-04-26T06:02:06.857Z,9.87
2023-04-26T06:04:35.672Z,10.06
2023-04-26T06:07:12.708Z,10.14
2023-04-26T06:09:40.498Z,10.06
2023-04-26T06:12:08.106Z,10.04
2023-04-26T06:14:39.954Z,9.96
2023-04-26T06:17:11.998Z,10.06
2023-04-26T06:19:39.839Z,10.20
2023-04-26T06:22:07.421Z,10.22
2023-04-26T06:24:35.006Z,10.30
2023-04-26T06:27:02.772Z,10.38
2023-04-26T06:29:33.784Z,10.25
2023-04-26T06:32:02.012Z,10.21
2023-04-26T06:34:30.534Z,10.30
2023-04-26T06:36:58.075Z,10.24
2023-04-26T06:39:27.605Z,10.35
2023-04-26T06:41:55.918Z,10.34
2023-04-26T06:44:32.762Z,10.35
2023-04-26T06:47:03.718Z,10.18
2023-04-26T06:49:32.857Z,10.18
2023-04-26T06:52:00.615Z,10.54
2023-04-26T06:54:30.039Z,10.75
2023-04-26T06:56:58.782Z,10.82
2023-04-26T06:59:27.097Z,10.89
2023-04-26T07:01:54.886Z,10.97
2023-04-26T07:04:22.560Z,11.12
2023-04-26T07:06:50.509Z,10.97
2023-04-26T07:09:18.024Z,10.97
2023-04-26T07:11:48.931Z,10.95
2023-04-26T07:14:17.643Z,10.69
2023-04-26T07:16:45.436Z,10.37
2023-04-26T07:19:13.147Z,10.18
2023-04-26T07:21:40.686Z,10.01
2023-04-26T07:24:08.695Z,9.83
2023-04-26T07:26:39.366Z,9.78
2023-04-26T07:29:06.961Z,9.70
2023-04-26T07:31:34.634Z,9.83
2023-04-26T07:34:02.301Z,9.82
2023-04-26T07:36:29.860Z,9.73
2023-04-26T07:38:57.346Z,9.60
2023-04-26T07:41:27.217Z,9.45
2023-04-26T07:43:55.013Z,9.53
2023-04-26T07:46:22.704Z,9.43
2023-04-26T07:48:50.333Z,9.39
2023-04-26T07:51:17.852Z,9.38
2023-04-26T07:53:45.355Z,9.30
2023-04-26T07:56:12.906Z,9.25
2023-04-26T07:58:40.631Z,9.20
2023-04-26T08:01:08.837Z,9.20
2023-04-26T08:03:36.525Z,9.34
2023-04-26T08:06:04.778Z,9.66
2023-04-26T08:08:33.545Z,10.03
2023-04-26T08:11:01.101Z,10.56
2023-04-26T08:13:29.557Z,11.26
2023-04-26T08:15:57.134Z,11.51
2023-04-26T08:18:24.704Z,11.90
2023-04-26T08:20:55.221Z,12.03
2023-04-26T08:23:23.020Z,12.46
2023-04-26T08:25:50.669Z,12.99
2023-04-26T08:28:18.117Z,13.91
2023-04-26T08:30:45.675Z,13.85
2023-04-26T08:33:13.131Z,13.35
2023-04-26T08:35:41.241Z,13.40
2023-04-26T08:38:08.778Z,13.27
2023-04-26T08:40:36.905Z,13.06
2023-04-26T08:43:04.374Z,12.89
2023-04-26T08:45:36.618Z,12.80
2023-04-26T08:48:11.905Z,12.67
2023-04-26T08:50:41.814Z,12.36
2023-04-26T08:53:13.997Z,12.29
2023-04-26T08:55:42.982Z,12.33
2023-04-26T08:58:12.121Z,12.38
2023-04-26T09:00:39.808Z,13.01
2023-04-26T09:03:07.438Z,13.60
2023-04-26T09:05:35.364Z,13.26
2023-04-26T09:08:06.326Z,13.05
2023-04-26T09:10:33.844Z,13.46
2023-04-26T09:13:01.374Z,13.33
2023-04-26T09:15:28.955Z,13.54
2023-04-26T09:17:56.650Z,13.91
2023-04-26T09:20:29.482Z,14.25
2023-04-26T09:23:08.758Z,13.73
2023-04-26T09:25:37.695Z,13.77
2023-04-26T09:28:23.354Z,13.95
2023-04-26T09:30:51.231Z,13.81
2023-04-26T09:33:19.619Z,13.98
2023-04-26T09:35:47.268Z,14.29
2023-04-26T09:38:18.667Z,14.63
2023-04-26T09:40:49.505Z,15.00
2023-04-26T09:43:19.951Z,15.04
2023-04-26T09:45:56.259Z,15.18
2023-04-26T09:48:34.379Z,15.32
2023-04-26T09:51:04.687Z,15.20
2023-04-26T09:53:50.043Z,15.17
2023-04-26T09:56:20.007Z,15.53
2023-04-26T09:58:47.577Z,16.03
2023-04-26T10:01:18.099Z,16.32
2023-04-26T10:03:47.610Z,16.97
2023-04-26T10:06:16.720Z,17.27
2023-04-26T10:08:45.512Z,16.61
2023-04-26T10:11:13.982Z,15.90
2023-04-26T10:13:43.097Z,15.38
2023-04-26T10:16:11.744Z,15.38
2023-04-26T10:18:39.423Z,15.04
2023-04-26T10:21:16.921Z,15.35
2023-04-26T10:23:45.323Z,16.20
2023-04-26T10:26:57.543Z,16.93
2023-04-26T10:29:28.010Z,17.06
2023-04-26T10:32:04.566Z,17.05
2023-04-26T10:34:35.311Z,17.34
2023-04-26T10:37:18.984Z,17.67
2023-04-26T10:39:48.585Z,17.72
2023-04-26T10:42:30.992Z,17.88
2023-04-26T10:45:00.283Z,17.74
2023-04-26T10:47:37.337Z,17.58
2023-04-26T10:50:11.250Z,17.71
2023-04-26T10:53:04.360Z,17.68
2023-04-26T10:55:43.112Z,17.54
2023-04-26T10:58:34.470Z,17.68
2023-04-26T11:01:11.635Z,17.79
2023-04-26T11:03:41.521Z,17.72
2023-04-26T11:06:13.950Z,18.32
2023-04-26T11:08:41.977Z,18.89
2023-04-26T11:11:13.729Z,18.16
2023-04-26T11:13:43.338Z,17.79
2023-04-26T11:16:13.789Z,17.51
2023-04-26T11:18:44.038Z,17.31
2023-04-26T11:21:13.059Z,17.31
2023-04-26T11:23:41.047Z,17.85
2023-04-26T11:26:09.786Z,18.64
2023-04-26T11:28:39.460Z,19.15
2023-04-26T11:31:07.780Z,19.60
2023-04-26T11:33:35.422Z,19.55
2023-04-26T11:36:03.745Z,20.03
2023-04-26T11:38:31.303Z,20.89
2023-04-26T11:41:04.014Z,20.59
2023-04-26T11:43:39.152Z,19.52
2023-04-26T11:46:10.030Z,18.64
2023-04-26T11:48:39.487Z,17.61
2023-04-26T11:51:09.389Z,16.78
2023-04-26T11:53:42.716Z,15.76
2023-04-26T11:56:22.074Z,15.30
2023-04-26T11:58:53.601Z,15.42
2023-04-26T12:01:30.054Z,15.65
2023-04-26T12:04:00.073Z,16.24
2023-04-26T12:06:41.748Z,16.85
2023-04-26T12:09:11.263Z,16.14
2023-04-26T12:11:40.237Z,15.42
2023-04-26T12:14:09.989Z,15.48
2023-04-26T12:16:38.006Z,16.49
2023-04-26T12:19:07.305Z,16.99
2023-04-26T12:21:45.049Z,16.75
2023-04-26T12:24:33.398Z,16.57
2023-04-26T12:27:02.979Z,15.87
2023-04-26T12:29:34.456Z,15.59
2023-04-26T12:32:04.110Z,16.45
2023-04-26T12:34:31.929Z,17.03
2023-04-26T12:36:59.519Z,17.41
2023-04-26T12:39:27.043Z,17.03
2023-04-26T12:41:55.289Z,16.69
2023-04-26T12:44:22.932Z,16.68
2023-04-26T12:46:51.354Z,16.49
2023-04-26T12:49:19.081Z,17.12
2023-04-26T12:51:46.725Z,17.50
2023-04-26T12:54:14.328Z,17.78
2023-04-26T12:56:44.512Z,18.22
2023-04-26T12:59:12.208Z,18.43
2023-04-26T13:01:39.836Z,18.30
2023-04-26T13:04:07.756Z,18.34
2023-04-26T13:06:35.923Z,18.29
2023-04-26T13:09:03.886Z,18.17
2023-04-26T13:11:31.676Z,18.61
2023-04-26T13:13:59.694Z,18.05
2023-04-26T13:16:27.316Z,17.85
2023-04-26T13:18:56.142Z,17.50
2023-04-26T13:21:23.837Z,17.23
2023-04-26T13:23:51.458Z,17.10
2023-04-26T13:26:19.070Z,17.15
2023-04-26T13:28:47.626Z,17.07
2023-04-26T13:31:17.458Z,16.67
2023-04-26T13:33:47.390Z,16.27
2023-04-26T13:36:16.644Z,16.07
2023-04-26T13:38:45.123Z,16.00
2023-04-26T13:41:12.684Z,16.49
2023-04-26T13:43:40.606Z,16.85
2023-04-26T13:46:08.156Z,16.40
2023-04-26T13:48:35.844Z,16.16
2023-04-26T13:51:06.737Z,15.69
2023-04-26T13:53:34.717Z,15.30
2023-04-26T13:56:02.457Z,15.25
2023-04-26T13:58:29.986Z,15.44
2023-04-26T14:00:57.533Z,16.00
2023-04-26T14:03:25.231Z,16.20
2023-04-26T14:05:53.119Z,15.97
2023-04-26T14:08:21.272Z,15.67
2023-04-26T14:10:48.666Z,15.74
2023-04-26T14:13:16.125Z,16.47
2023-04-26T14:15:43.645Z,16.93
2023-04-26T14:18:11.401Z,17.10
2023-04-26T14:20:39.037Z,17.47
2023-04-26T14:23:06.604Z,17.31
2023-04-26T14:25:34.241Z,17.09
2023-04-26T14:28:02.221Z,17.19
2023-04-26T14:30:29.817Z,16.99
2023-04-26T14:32:57.394Z,16.42
2023-04-26T14:35:25.018Z,16.32
2023-04-26T14:37:52.566Z,16.58
2023-04-26T14:40:20.463Z,16.48
2023-04-26T14:42:47.989Z,16.25
2023-04-26T14:45:15.677Z,15.93
2023-04-26T14:47:43.279Z,15.53
2023-04-26T14:50:13.629Z,15.42
2023-04-26T14:52:41.274Z,15.48
2023-04-26T14:55:09.034Z,15.79
2023-04-26T14:57:36.643Z,15.86
2023-04-26T15:00:07.021Z,16.20
2023-04-26T15:02:34.809Z,16.64
2023-04-26T15:05:04.339Z,16.75
2023-04-26T15:07:33.056Z,16.14
2023-04-26T15:10:01.808Z,15.49
2023-04-26T15:12:29.386Z,14.87
2023-04-26T15:14:57.129Z,14.65
2023-04-26T15:17:24.876Z,14.84
2023-04-26T15:19:52.353Z,14.84
2023-04-26T15:22:19.984Z,14.62
2023-04-26T15:24:49.647Z,14.66
2023-04-26T15:27:17.605Z,14.96
2023-04-26T15:29:45.132Z,15.24
2023-04-26T15:32:13.039Z,15.11
2023-04-26T15:34:45.419Z,14.75
2023-04-26T15:37:13.321Z,14.55
2023-04-26T15:39:40.868Z,14.62
2023-04-26T15:42:08.446Z,14.91
2023-04-26T15:44:36.490Z,15.15
2023-04-26T15:47:04.295Z,15.17
2023-04-26T15:49:31.866Z,15.28
2023-04-26T15:51:59.448Z,15.25
2023-04-26T15:54:27.610Z,15.20
2023-04-26T15:56:55.370Z,15.05
2023-04-26T15:59:22.843Z,14.77
2023-04-26T16:01:50.586Z,14.69
2023-04-26T16:04:18.252Z,14.57
2023-04-26T16:06:46.082Z,14.56
2023-04-26T16:09:25.365Z,14.48
2023-04-26T16:11:53.337Z,14.07
2023-04-26T16:14:21.251Z,13.75
2023-04-26T16:16:49.015Z,13.54
2023-04-26T16:19:17.417Z,13.39
2023-04-26T16:21:45.078Z,13.27
2023-04-26T16:24:13.003Z,13.18
2023-04-26T16:26:41.056Z,13.06
2023-04-26T16:29:08.741Z,12.98
2023-04-26T16:31:36.348Z,12.94
2023-04-26T16:34:04.043Z,12.89
2023-04-26T16:36:31.622Z,12.84
2023-04-26T16:38:59.234Z,12.77
2023-04-26T16:41:27.538Z,12.69
2023-04-26T16:43:56.040Z,12.63
2023-04-26T16:46:23.580Z,12.57
2023-04-26T16:48:51.641Z,12.48
2023-04-26T16:51:19.151Z,12.41
2023-04-26T16:53:46.798Z,12.36
2023-04-26T16:56:14.520Z,12.30
2023-04-26T16:58:42.273Z,12.27
2023-04-26T17:01:09.876Z,12.27
2023-04-26T17:03:38.747Z,12.19
2023-04-26T17:06:07.821Z,12.17
2023-04-26T17:08:35.331Z,12.09
2023-04-26T17:11:02.908Z,12.08
2023-04-26T17:13:33.370Z,12.10
2023-04-26T17:16:01.848Z,11.99
2023-04-26T17:18:29.404Z,11.86
2023-04-26T17:20:57.691Z,11.69
2023-04-26T17:23:25.340Z,11.57
2023-04-26T17:25:55.097Z,11.45
2023-04-26T17:28:23.056Z,11.35
2023-04-26T17:30:50.527Z,11.24
2023-04-26T17:33:18.520Z,11.14
2023-04-26T17:35:47.287Z,11.02
2023-04-26T17:38:14.833Z,10.92
2023-04-26T17:40:42.639Z,10.82
2023-04-26T17:43:10.423Z,10.68
2023-04-26T17:45:37.927Z,10.58
2023-04-26T17:48:10.904Z,10.45
2023-04-26T17:50:40.099Z,10.31
2023-04-26T17:53:08.425Z,10.18
2023-04-26T17:55:36.540Z,10.10
2023-04-26T17:58:03.983Z,9.97
2023-04-26T18:00:31.832Z,9.87
2023-04-26T18:03:02.964Z,9.75
2023-04-26T18:05:31.913Z,9.68
2023-04-26T18:08:00.135Z,9.65
2023-04-26T18:10:27.707Z,9.62
2023-04-26T18:12:55.185Z,9.58
2023-04-26T18:15:23.030Z,9.62
2023-04-26T18:17:51.124Z,9.66
2023-04-26T18:20:18.623Z,9.66
2023-04-26T18:22:46.087Z,9.60
2023-04-26T18:25:13.606Z,9.56
2023-04-26T18:27:41.368Z,9.46
2023-04-26T18:30:12.803Z,9.41
2023-04-26T18:32:40.756Z,9.34
2023-04-26T18:35:09.158Z,9.24
2023-04-26T18:37:37.865Z,9.17
2023-04-26T18:40:08.918Z,9.11
2023-04-26T18:42:38.808Z,9.01
2023-04-26T18:45:07.917Z,8.91
2023-04-26T18:47:35.554Z,8.87
2023-04-26T18:50:03.565Z,8.74
2023-04-26T18:52:31.478Z,8.72
2023-04-26T18:54:59.209Z,8.63
2023-04-26T18:57:27.520Z,8.55
2023-04-26T18:59:57.285Z,8.50
2023-04-26T19:02:25.216Z,8.42
2023-04-26T19:04:53.105Z,8.39
2023-04-26T19:07:20.955Z,8.35
2023-04-26T19:09:54.078Z,8.32
2023-04-26T19:12:22.613Z,8.32
2023-04-26T19:14:50.258Z,8.34
2023-04-26T19:17:17.820Z,8.34
2023-04-26T19:19:45.902Z,8.34
2023-04-26T19:22:13.825Z,8.31
2023-04-26T19:24:41.627Z,8.25
2023-04-26T19:27:09.197Z,8.22
2023-04-26T19:29:37.123Z,8.26
2023-04-26T19:32:07.037Z,8.18
2023-04-26T19:34:38.929Z,8.16
2023-04-26T19:37:07.180Z,8.14
2023-04-26T19:39:34.651Z,8.08
2023-04-26T19:42:03.303Z,8.08
2023-04-26T19:44:31.376Z,8.02
2023-04-26T19:46:58.939Z,7.97
2023-04-26T19:49:28.904Z,7.88
2023-04-26T19:51:57.031Z,7.83
2023-04-26T19:54:24.756Z,7.74
2023-04-26T19:56:52.286Z,7.66
2023-04-26T19:59:19.762Z,7.52
2023-04-26T20:01:47.401Z,7.38
2023-04-26T20:04:15.182Z,7.20
2023-04-26T20:06:42.720Z,7.04
2023-04-26T20:09:10.890Z,6.94
2023-04-26T20:11:38.396Z,6.84
2023-04-26T20:14:05.962Z,6.80
2023-04-26T20:16:33.966Z,6.74
2023-04-26T20:19:01.532Z,6.70
2023-04-26T20:21:29.298Z,6.66
2023-04-26T20:23:57.119Z,6.61
2023-04-26T20:26:24.623Z,6.56
2023-04-26T20:28:52.098Z,6.51
2023-04-26T20:31:19.685Z,6.49
2023-04-26T20:33:47.212Z,6.47
2023-04-26T20:36:15.075Z,6.44
2023-04-26T20:38:42.561Z,6.46
2023-04-26T20:41:10.456Z,6.44
2023-04-26T20:43:37.891Z,6.39
2023-04-26T20:46:05.484Z,6.40
2023-04-26T20:48:33.012Z,6.37
2023-04-26T20:51:01.988Z,6.33
2023-04-26T20:53:29.490Z,6.26
2023-04-26T20:55:57.216Z,6.22
2023-04-26T20:58:24.679Z,6.15
2023-04-26T21:00:52.363Z,6.11
2023-04-26T21:03:20.414Z,6.05
2023-04-26T21:05:48.352Z,6.01
2023-04-26T21:08:15.998Z,5.92
2023-04-26T21:10:43.527Z,5.87
2023-04-26T21:13:11.031Z,5.78
2023-04-26T21:15:38.716Z,5.68
2023-04-26T21:18:06.431Z,5.63
2023-04-26T21:20:33.979Z,5.60
2023-04-26T21:23:01.536Z,5.53
2023-04-26T21:25:29.037Z,5.51
2023-04-26T21:27:58.246Z,5.46
2023-04-26T21:30:25.990Z,5.46
2023-04-26T21:32:53.757Z,5.39
2023-04-26T21:35:21.731Z,5.37
2023-04-26T21:37:49.206Z,5.32
2023-04-26T21:40:16.783Z,5.29
2023-04-26T21:42:48.865Z,5.25
2023-04-26T21:45:19.278Z,5.25
2023-04-26T21:47:46.756Z,5.26
2023-04-26T21:50:14.352Z,5.23
2023-04-26T21:52:41.976Z,5.16
2023-04-26T21:55:10.112Z,5.18
2023-04-26T21:57:37.687Z,5.15
2023-04-26T22:00:08.563Z,5.12
2023-04-26T22:02:41.472Z,5.09
2023-04-26T22:05:09.706Z,5.09
2023-04-26T22:07:37.143Z,5.09
2023-04-26T22:10:05.038Z,5.06
2023-04-26T22:12:32.493Z,4.99
2023-04-26T22:14:59.971Z,4.99
2023-04-26T22:17:27.434Z,4.98
2023-04-26T22:19:55.617Z,4.95
2023-04-26T22:22:24.723Z,4.91
2023-04-26T22:24:52.174Z,4.86
2023-04-26T22:27:19.625Z,4.82
2023-04-26T22:29:47.146Z,4.79
2023-04-26T22:32:14.648Z,4.78
2023-04-26T22:34:43.783Z,4.79
2023-04-26T22:37:20.908Z,4.81
2023-04-26T22:39:49.617Z,4.77
2023-04-26T22:42:17.128Z,4.74
2023-04-26T22:44:44.628Z,4.71
2023-04-26T22:47:12.125Z,4.71
2023-04-26T22:49:39.610Z,4.68
2023-04-26T22:52:14.092Z,4.65
2023-04-26T22:54:48.882Z,4.57
2023-04-26T22:57:16.555Z,4.58
2023-04-26T22:59:44.136Z,4.57
2023-04-26T23:02:15.161Z,4.53
2023-04-26T23:04:42.832Z,4.54
2023-04-26T23:07:10.893Z,4.51
2023-04-26T23:09:38.370Z,4.46
2023-04-26T23:12:06.288Z,4.44
2023-04-26T23:14:35.211Z,4.44
2023-04-26T23:17:03.060Z,4.40
2023-04-26T23:19:30.853Z,4.36
2023-04-26T23:21:58.341Z,4.37
2023-04-26T23:24:25.830Z,4.33
2023-04-26T23:26:53.344Z,4.29
2023-04-26T23:29:21.026Z,4.26
2023-04-26T23:31:48.606Z,4.26
2023-04-26T23:34:16.448Z,4.24
2023-04-26T23:36:43.914Z,4.24
2023-04-26T23:39:11.564Z,4.23
2023-04-26T23:41:39.251Z,4.21
2023-04-26T23:44:07.313Z,4.21
2023-04-26T23:46:34.877Z,4.21
2023-04-26T23:49:02.438Z,4.19
2023-04-26T23:51:29.932Z,4.19
2023-04-26T23:53:57.550Z,4.14
2023-04-26T23:56:25.094Z,4.16
2023-04-26T23:58:52.648Z,4.16
